sensor_id;sensor_type;location;lat;lon;timestamp;temperature;humidity
12434;DHT22;6281;49.038;8.372;2022-10-19T00:01:12;15.90;99.90
12434;DHT22;6281;49.038;8.372;2022-10-19T00:03:40;15.90;99.90
12434;DHT22;6281;49.038;8.372;2022-10-19T00:06:13;15.70;99.90
12434;DHT22;6281;49.038;8.372;2022-10-19T00:08:41;15.70;99.90
12434;DHT22;6281;49.038;8.372;2022-10-19T00:11:08;15.80;99.90
12434;DHT22;6281;49.038;8.372;2022-10-19T00:13:36;15.70;99.90
12434;DHT22;6281;49.038;8.372;2022-10-19T00:16:09;15.70;99.90
12434;DHT22;6281;49.038;8.372;2022-10-19T00:18:37;15.60;99.90
12434;DHT22;6281;49.038;8.372;2022-10-19T00:21:05;15.70;99.90
12434;DHT22;6281;49.038;8.372;2022-10-19T00:23:32;15.70;99.90
12434;DHT22;6281;49.038;8.372;2022-10-19T00:26:00;15.70;99.90
12434;DHT22;6281;49.038;8.372;2022-10-19T00:28:27;15.70;99.90
12434;DHT22;6281;49.038;8.372;2022-10-19T00:30:55;15.80;99.90
12434;DHT22;6281;49.038;8.372;2022-10-19T00:33:23;15.80;99.90
12434;DHT22;6281;49.038;8.372;2022-10-19T00:35:51;15.80;99.90
12434;DHT22;6281;49.038;8.372;2022-10-19T00:38:19;15.90;99.90
12434;DHT22;6281;49.038;8.372;2022-10-19T00:40:49;15.80;99.90
12434;DHT22;6281;49.038;8.372;2022-10-19T00:43:22;15.80;99.90
12434;DHT22;6281;49.038;8.372;2022-10-19T00:45:49;15.80;99.90
12434;DHT22;6281;49.038;8.372;2022-10-19T00:48:20;15.80;99.90
12434;DHT22;6281;49.038;8.372;2022-10-19T00:50:50;15.80;99.90
12434;DHT22;6281;49.038;8.372;2022-10-19T00:53:19;15.90;99.90
12434;DHT22;6281;49.038;8.372;2022-10-19T00:55:46;15.80;99.90
12434;DHT22;6281;49.038;8.372;2022-10-19T00:58:14;15.90;99.90
12434;DHT22;6281;49.038;8.372;2022-10-19T01:00:41;15.90;99.90
12434;DHT22;6281;49.038;8.372;2022-10-19T01:03:09;15.90;99.90
12434;DHT22;6281;49.038;8.372;2022-10-19T01:05:37;15.80;99.90
12434;DHT22;6281;49.038;8.372;2022-10-19T01:08:07;15.90;99.90
12434;DHT22;6281;49.038;8.372;2022-10-19T01:10:43;15.90;99.90
12434;DHT22;6281;49.038;8.372;2022-10-19T01:13:21;15.90;99.90
12434;DHT22;6281;49.038;8.372;2022-10-19T01:15:57;15.90;99.90
12434;DHT22;6281;49.038;8.372;2022-10-19T01:18:35;15.80;99.90
12434;DHT22;6281;49.038;8.372;2022-10-19T01:21:27;15.80;99.90
12434;DHT22;6281;49.038;8.372;2022-10-19T01:27:35;15.70;99.90
12434;DHT22;6281;49.038;8.372;2022-10-19T01:30:12;15.70;99.90
12434;DHT22;6281;49.038;8.372;2022-10-19T01:33:00;15.70;99.90
12434;DHT22;6281;49.038;8.372;2022-10-19T01:35:34;15.80;99.90
12434;DHT22;6281;49.038;8.372;2022-10-19T01:38:11;15.80;99.90
12434;DHT22;6281;49.038;8.372;2022-10-19T01:40:46;15.80;99.90
12434;DHT22;6281;49.038;8.372;2022-10-19T01:43:23;15.90;99.90
12434;DHT22;6281;49.038;8.372;2022-10-19T01:45:57;15.70;99.90
12434;DHT22;6281;49.038;8.372;2022-10-19T01:48:29;15.80;99.90
12434;DHT22;6281;49.038;8.372;2022-10-19T01:51:09;15.80;99.90
12434;DHT22;6281;49.038;8.372;2022-10-19T01:53:41;15.90;99.90
12434;DHT22;6281;49.038;8.372;2022-10-19T01:56:10;15.90;99.90
12434;DHT22;6281;49.038;8.372;2022-10-19T01:58:40;15.80;99.90
12434;DHT22;6281;49.038;8.372;2022-10-19T02:01:12;15.80;99.90
12434;DHT22;6281;49.038;8.372;2022-10-19T02:03:42;15.80;99.90
12434;DHT22;6281;49.038;8.372;2022-10-19T02:06:10;15.80;99.90
12434;DHT22;6281;49.038;8.372;2022-10-19T02:08:43;15.80;99.90
12434;DHT22;6281;49.038;8.372;2022-10-19T02:11:11;15.70;99.90
12434;DHT22;6281;49.038;8.372;2022-10-19T02:13:38;15.70;99.90
12434;DHT22;6281;49.038;8.372;2022-10-19T02:16:09;15.70;99.90
12434;DHT22;6281;49.038;8.372;2022-10-19T02:18:44;15.60;99.90
12434;DHT22;6281;49.038;8.372;2022-10-19T02:21:11;15.60;99.90
12434;DHT22;6281;49.038;8.372;2022-10-19T02:23:38;15.60;99.90
12434;DHT22;6281;49.038;8.372;2022-10-19T02:26:05;15.70;99.90
12434;DHT22;6281;49.038;8.372;2022-10-19T02:28:33;15.70;99.90
12434;DHT22;6281;49.038;8.372;2022-10-19T02:31:00;15.80;99.90
12434;DHT22;6281;49.038;8.372;2022-10-19T02:33:28;15.80;99.90
12434;DHT22;6281;49.038;8.372;2022-10-19T02:35:57;15.80;99.90
12434;DHT22;6281;49.038;8.372;2022-10-19T02:38:25;15.80;99.90
12434;DHT22;6281;49.038;8.372;2022-10-19T02:40:57;15.80;99.90
12434;DHT22;6281;49.038;8.372;2022-10-19T02:43:26;15.70;99.90
12434;DHT22;6281;49.038;8.372;2022-10-19T02:45:58;15.70;99.90
12434;DHT22;6281;49.038;8.372;2022-10-19T02:48:28;15.70;99.90
12434;DHT22;6281;49.038;8.372;2022-10-19T02:50:58;15.70;99.90
12434;DHT22;6281;49.038;8.372;2022-10-19T02:53:25;15.70;99.90
12434;DHT22;6281;49.038;8.372;2022-10-19T02:55:52;15.70;99.90
12434;DHT22;6281;49.038;8.372;2022-10-19T02:58:18;15.60;99.90
12434;DHT22;6281;49.038;8.372;2022-10-19T03:00:45;15.70;99.90
12434;DHT22;6281;49.038;8.372;2022-10-19T03:03:12;15.60;99.90
12434;DHT22;6281;49.038;8.372;2022-10-19T03:05:39;15.60;99.90
12434;DHT22;6281;49.038;8.372;2022-10-19T03:08:07;15.60;99.90
12434;DHT22;6281;49.038;8.372;2022-10-19T03:10:35;15.60;99.90
12434;DHT22;6281;49.038;8.372;2022-10-19T03:13:02;15.50;99.90
12434;DHT22;6281;49.038;8.372;2022-10-19T03:15:28;15.60;99.90
12434;DHT22;6281;49.038;8.372;2022-10-19T03:17:55;15.40;99.90
12434;DHT22;6281;49.038;8.372;2022-10-19T03:20:23;15.50;99.90
12434;DHT22;6281;49.038;8.372;2022-10-19T03:22:49;15.50;99.90
12434;DHT22;6281;49.038;8.372;2022-10-19T03:25:18;15.50;99.90
12434;DHT22;6281;49.038;8.372;2022-10-19T03:27:45;15.50;99.90
12434;DHT22;6281;49.038;8.372;2022-10-19T03:30:12;15.50;99.90
12434;DHT22;6281;49.038;8.372;2022-10-19T03:32:39;15.50;99.90
12434;DHT22;6281;49.038;8.372;2022-10-19T03:35:06;15.40;99.90
12434;DHT22;6281;49.038;8.372;2022-10-19T03:37:33;15.40;99.90
12434;DHT22;6281;49.038;8.372;2022-10-19T03:40:05;15.40;99.90
12434;DHT22;6281;49.038;8.372;2022-10-19T03:42:33;15.40;99.90
12434;DHT22;6281;49.038;8.372;2022-10-19T03:45:00;15.50;99.90
12434;DHT22;6281;49.038;8.372;2022-10-19T03:47:27;15.50;99.90
12434;DHT22;6281;49.038;8.372;2022-10-19T03:49:54;15.40;99.90
12434;DHT22;6281;49.038;8.372;2022-10-19T03:52:21;15.40;99.90
12434;DHT22;6281;49.038;8.372;2022-10-19T03:54:49;15.40;99.90
12434;DHT22;6281;49.038;8.372;2022-10-19T03:57:17;15.30;99.90
12434;DHT22;6281;49.038;8.372;2022-10-19T03:59:45;15.30;99.90
12434;DHT22;6281;49.038;8.372;2022-10-19T04:02:12;15.30;99.90
12434;DHT22;6281;49.038;8.372;2022-10-19T04:04:39;15.40;99.90
12434;DHT22;6281;49.038;8.372;2022-10-19T04:07:06;15.30;99.90
12434;DHT22;6281;49.038;8.372;2022-10-19T04:09:42;15.30;99.90
12434;DHT22;6281;49.038;8.372;2022-10-19T04:12:09;15.20;99.90
12434;DHT22;6281;49.038;8.372;2022-10-19T04:14:36;15.30;99.90
12434;DHT22;6281;49.038;8.372;2022-10-19T04:17:05;15.40;99.90
12434;DHT22;6281;49.038;8.372;2022-10-19T04:19:33;15.20;99.90
12434;DHT22;6281;49.038;8.372;2022-10-19T04:22:00;15.20;99.90
12434;DHT22;6281;49.038;8.372;2022-10-19T04:24:27;15.20;99.90
12434;DHT22;6281;49.038;8.372;2022-10-19T04:26:55;15.20;99.90
12434;DHT22;6281;49.038;8.372;2022-10-19T04:29:23;15.10;99.90
12434;DHT22;6281;49.038;8.372;2022-10-19T04:31:51;15.20;99.90
12434;DHT22;6281;49.038;8.372;2022-10-19T04:34:20;15.20;99.90
12434;DHT22;6281;49.038;8.372;2022-10-19T04:36:47;15.20;99.90
12434;DHT22;6281;49.038;8.372;2022-10-19T04:39:14;15.20;99.90
12434;DHT22;6281;49.038;8.372;2022-10-19T04:41:40;15.20;99.90
12434;DHT22;6281;49.038;8.372;2022-10-19T04:44:08;15.10;99.90
12434;DHT22;6281;49.038;8.372;2022-10-19T04:46:35;15.10;99.90
12434;DHT22;6281;49.038;8.372;2022-10-19T04:49:03;15.20;99.90
12434;DHT22;6281;49.038;8.372;2022-10-19T04:51:32;15.10;99.90
12434;DHT22;6281;49.038;8.372;2022-10-19T04:54:01;15.10;99.90
12434;DHT22;6281;49.038;8.372;2022-10-19T04:56:28;15.00;99.90
12434;DHT22;6281;49.038;8.372;2022-10-19T04:58:57;15.10;99.90
12434;DHT22;6281;49.038;8.372;2022-10-19T05:01:26;15.10;99.90
12434;DHT22;6281;49.038;8.372;2022-10-19T05:03:54;15.10;99.90
12434;DHT22;6281;49.038;8.372;2022-10-19T05:06:23;15.00;99.90
12434;DHT22;6281;49.038;8.372;2022-10-19T05:08:51;15.10;99.90
12434;DHT22;6281;49.038;8.372;2022-10-19T05:11:19;15.00;99.90
12434;DHT22;6281;49.038;8.372;2022-10-19T05:13:46;14.90;99.90
12434;DHT22;6281;49.038;8.372;2022-10-19T05:16:14;15.00;99.90
12434;DHT22;6281;49.038;8.372;2022-10-19T05:18:47;14.90;99.90
12434;DHT22;6281;49.038;8.372;2022-10-19T05:21:15;15.00;99.90
12434;DHT22;6281;49.038;8.372;2022-10-19T05:23:43;14.90;99.90
12434;DHT22;6281;49.038;8.372;2022-10-19T05:26:13;14.90;99.90
12434;DHT22;6281;49.038;8.372;2022-10-19T05:28:42;14.90;99.90
12434;DHT22;6281;49.038;8.372;2022-10-19T05:31:10;14.90;99.90
12434;DHT22;6281;49.038;8.372;2022-10-19T05:33:38;14.90;99.90
12434;DHT22;6281;49.038;8.372;2022-10-19T05:36:13;14.90;99.90
12434;DHT22;6281;49.038;8.372;2022-10-19T05:38:40;15.00;99.90
12434;DHT22;6281;49.038;8.372;2022-10-19T05:41:07;14.90;99.90
12434;DHT22;6281;49.038;8.372;2022-10-19T05:43:36;14.70;99.90
12434;DHT22;6281;49.038;8.372;2022-10-19T05:46:04;14.80;99.90
12434;DHT22;6281;49.038;8.372;2022-10-19T05:48:31;14.90;99.90
12434;DHT22;6281;49.038;8.372;2022-10-19T05:51:00;14.90;99.90
12434;DHT22;6281;49.038;8.372;2022-10-19T05:53:27;14.90;99.90
12434;DHT22;6281;49.038;8.372;2022-10-19T05:55:54;14.70;99.90
12434;DHT22;6281;49.038;8.372;2022-10-19T05:58:21;14.80;99.90
12434;DHT22;6281;49.038;8.372;2022-10-19T06:00:54;14.80;99.90
12434;DHT22;6281;49.038;8.372;2022-10-19T06:03:22;14.80;99.90
12434;DHT22;6281;49.038;8.372;2022-10-19T06:05:50;14.70;99.90
12434;DHT22;6281;49.038;8.372;2022-10-19T06:08:18;14.70;99.90
12434;DHT22;6281;49.038;8.372;2022-10-19T06:10:45;14.80;99.90
12434;DHT22;6281;49.038;8.372;2022-10-19T06:13:14;14.80;99.90
12434;DHT22;6281;49.038;8.372;2022-10-19T06:15:41;14.70;99.90
12434;DHT22;6281;49.038;8.372;2022-10-19T06:18:11;14.80;99.90
12434;DHT22;6281;49.038;8.372;2022-10-19T06:20:39;14.80;99.90
12434;DHT22;6281;49.038;8.372;2022-10-19T06:23:07;14.80;99.90
12434;DHT22;6281;49.038;8.372;2022-10-19T06:25:34;14.90;99.90
12434;DHT22;6281;49.038;8.372;2022-10-19T06:28:03;14.90;99.90
12434;DHT22;6281;49.038;8.372;2022-10-19T06:30:30;14.80;99.90
12434;DHT22;6281;49.038;8.372;2022-10-19T06:32:57;15.00;99.90
12434;DHT22;6281;49.038;8.372;2022-10-19T06:35:26;15.00;99.90
12434;DHT22;6281;49.038;8.372;2022-10-19T06:37:55;14.90;99.90
12434;DHT22;6281;49.038;8.372;2022-10-19T06:40:22;15.00;99.90
12434;DHT22;6281;49.038;8.372;2022-10-19T06:42:49;15.00;99.90
12434;DHT22;6281;49.038;8.372;2022-10-19T06:45:16;14.90;99.90
12434;DHT22;6281;49.038;8.372;2022-10-19T06:47:43;14.90;99.90
12434;DHT22;6281;49.038;8.372;2022-10-19T06:50:11;15.00;99.90
12434;DHT22;6281;49.038;8.372;2022-10-19T06:52:39;15.00;99.90
12434;DHT22;6281;49.038;8.372;2022-10-19T06:55:07;15.10;99.90
12434;DHT22;6281;49.038;8.372;2022-10-19T06:57:34;15.10;99.90
12434;DHT22;6281;49.038;8.372;2022-10-19T07:00:01;15.20;99.90
12434;DHT22;6281;49.038;8.372;2022-10-19T07:02:28;15.10;99.90
12434;DHT22;6281;49.038;8.372;2022-10-19T07:04:55;15.10;99.90
12434;DHT22;6281;49.038;8.372;2022-10-19T07:07:21;15.10;99.90
12434;DHT22;6281;49.038;8.372;2022-10-19T07:09:50;15.20;99.90
12434;DHT22;6281;49.038;8.372;2022-10-19T07:12:18;15.20;99.90
12434;DHT22;6281;49.038;8.372;2022-10-19T07:14:45;15.10;99.90
12434;DHT22;6281;49.038;8.372;2022-10-19T07:17:12;15.20;99.90
12434;DHT22;6281;49.038;8.372;2022-10-19T07:19:39;15.20;99.90
12434;DHT22;6281;49.038;8.372;2022-10-19T07:22:06;15.10;99.90
12434;DHT22;6281;49.038;8.372;2022-10-19T07:24:33;15.10;99.90
12434;DHT22;6281;49.038;8.372;2022-10-19T07:27:01;15.10;99.90
12434;DHT22;6281;49.038;8.372;2022-10-19T07:29:28;15.10;99.90
12434;DHT22;6281;49.038;8.372;2022-10-19T07:31:55;15.20;99.90
12434;DHT22;6281;49.038;8.372;2022-10-19T07:34:22;15.20;99.90
12434;DHT22;6281;49.038;8.372;2022-10-19T07:36:49;15.20;99.90
12434;DHT22;6281;49.038;8.372;2022-10-19T07:39:17;15.20;99.90
12434;DHT22;6281;49.038;8.372;2022-10-19T07:41:44;15.30;99.90
12434;DHT22;6281;49.038;8.372;2022-10-19T07:44:13;15.30;99.90
12434;DHT22;6281;49.038;8.372;2022-10-19T07:46:40;15.40;99.90
12434;DHT22;6281;49.038;8.372;2022-10-19T07:49:09;15.30;99.90
12434;DHT22;6281;49.038;8.372;2022-10-19T07:51:37;15.30;99.90
12434;DHT22;6281;49.038;8.372;2022-10-19T07:54:05;15.30;99.90
12434;DHT22;6281;49.038;8.372;2022-10-19T07:56:32;15.30;99.90
12434;DHT22;6281;49.038;8.372;2022-10-19T07:59:00;15.30;99.90
12434;DHT22;6281;49.038;8.372;2022-10-19T08:01:30;15.30;99.90
12434;DHT22;6281;49.038;8.372;2022-10-19T08:03:58;15.30;99.90
12434;DHT22;6281;49.038;8.372;2022-10-19T08:06:26;15.40;99.90
12434;DHT22;6281;49.038;8.372;2022-10-19T08:08:54;15.40;99.90
12434;DHT22;6281;49.038;8.372;2022-10-19T08:11:22;15.50;99.90
12434;DHT22;6281;49.038;8.372;2022-10-19T08:13:50;15.50;99.90
12434;DHT22;6281;49.038;8.372;2022-10-19T08:16:22;15.40;99.90
12434;DHT22;6281;49.038;8.372;2022-10-19T08:18:51;15.50;99.90
12434;DHT22;6281;49.038;8.372;2022-10-19T08:21:19;15.50;99.90
12434;DHT22;6281;49.038;8.372;2022-10-19T08:23:45;15.50;99.90
12434;DHT22;6281;49.038;8.372;2022-10-19T08:26:12;15.60;99.90
12434;DHT22;6281;49.038;8.372;2022-10-19T08:28:39;15.70;99.90
12434;DHT22;6281;49.038;8.372;2022-10-19T08:31:11;15.80;99.90
12434;DHT22;6281;49.038;8.372;2022-10-19T08:33:38;15.90;99.90
12434;DHT22;6281;49.038;8.372;2022-10-19T08:36:09;15.80;99.90
12434;DHT22;6281;49.038;8.372;2022-10-19T08:38:38;15.90;99.90
12434;DHT22;6281;49.038;8.372;2022-10-19T08:41:13;15.90;99.90
12434;DHT22;6281;49.038;8.372;2022-10-19T08:43:55;15.80;99.90
12434;DHT22;6281;49.038;8.372;2022-10-19T08:46:25;15.70;99.90
12434;DHT22;6281;49.038;8.372;2022-10-19T08:48:59;15.80;99.90
12434;DHT22;6281;49.038;8.372;2022-10-19T08:51:34;15.80;99.90
12434;DHT22;6281;49.038;8.372;2022-10-19T08:54:07;15.80;99.90
12434;DHT22;6281;49.038;8.372;2022-10-19T08:56:41;15.80;99.90
12434;DHT22;6281;49.038;8.372;2022-10-19T08:59:14;15.80;99.90
12434;DHT22;6281;49.038;8.372;2022-10-19T09:01:45;15.90;99.90
12434;DHT22;6281;49.038;8.372;2022-10-19T09:04:20;16.00;99.90
12434;DHT22;6281;49.038;8.372;2022-10-19T09:06:57;15.80;99.90
12434;DHT22;6281;49.038;8.372;2022-10-19T09:09:27;15.90;99.90
12434;DHT22;6281;49.038;8.372;2022-10-19T09:12:00;15.90;99.90
12434;DHT22;6281;49.038;8.372;2022-10-19T09:14:31;15.90;99.90
12434;DHT22;6281;49.038;8.372;2022-10-19T09:17:03;15.90;99.90
12434;DHT22;6281;49.038;8.372;2022-10-19T09:19:33;16.00;99.90
12434;DHT22;6281;49.038;8.372;2022-10-19T09:22:04;16.00;99.90
12434;DHT22;6281;49.038;8.372;2022-10-19T09:24:40;15.80;99.90
12434;DHT22;6281;49.038;8.372;2022-10-19T09:27:18;15.90;99.90
12434;DHT22;6281;49.038;8.372;2022-10-19T09:29:50;16.00;99.90
12434;DHT22;6281;49.038;8.372;2022-10-19T09:32:21;16.00;99.90
12434;DHT22;6281;49.038;8.372;2022-10-19T09:34:51;16.00;99.90
12434;DHT22;6281;49.038;8.372;2022-10-19T09:37:20;16.10;99.90
12434;DHT22;6281;49.038;8.372;2022-10-19T09:39:47;16.10;99.90
12434;DHT22;6281;49.038;8.372;2022-10-19T09:42:20;16.20;99.90
12434;DHT22;6281;49.038;8.372;2022-10-19T09:44:48;16.30;99.90
12434;DHT22;6281;49.038;8.372;2022-10-19T09:47:27;16.30;99.90
12434;DHT22;6281;49.038;8.372;2022-10-19T09:50:07;16.30;99.90
12434;DHT22;6281;49.038;8.372;2022-10-19T09:52:38;16.20;99.90
12434;DHT22;6281;49.038;8.372;2022-10-19T09:55:09;16.30;99.90
12434;DHT22;6281;49.038;8.372;2022-10-19T09:57:44;16.40;99.90
12434;DHT22;6281;49.038;8.372;2022-10-19T10:00:17;16.60;99.90
12434;DHT22;6281;49.038;8.372;2022-10-19T10:02:48;16.50;99.90
12434;DHT22;6281;49.038;8.372;2022-10-19T10:05:16;16.60;99.90
12434;DHT22;6281;49.038;8.372;2022-10-19T10:07:44;16.40;99.90
12434;DHT22;6281;49.038;8.372;2022-10-19T10:10:22;16.50;99.90
12434;DHT22;6281;49.038;8.372;2022-10-19T10:12:51;16.40;99.90
12434;DHT22;6281;49.038;8.372;2022-10-19T10:15:22;16.60;99.90
12434;DHT22;6281;49.038;8.372;2022-10-19T10:17:50;16.60;99.90
12434;DHT22;6281;49.038;8.372;2022-10-19T10:20:23;16.50;99.90
12434;DHT22;6281;49.038;8.372;2022-10-19T10:22:56;16.60;99.90
12434;DHT22;6281;49.038;8.372;2022-10-19T10:25:27;16.60;99.90
12434;DHT22;6281;49.038;8.372;2022-10-19T10:27:56;16.70;99.90
12434;DHT22;6281;49.038;8.372;2022-10-19T10:30:25;17.00;99.90
12434;DHT22;6281;49.038;8.372;2022-10-19T10:32:55;17.00;99.90
12434;DHT22;6281;49.038;8.372;2022-10-19T10:35:24;17.50;99.90
12434;DHT22;6281;49.038;8.372;2022-10-19T10:38:07;18.00;99.90
12434;DHT22;6281;49.038;8.372;2022-10-19T10:40:34;18.90;99.90
12434;DHT22;6281;49.038;8.372;2022-10-19T10:43:05;20.00;99.90
12434;DHT22;6281;49.038;8.372;2022-10-19T10:45:36;22.20;99.90
12434;DHT22;6281;49.038;8.372;2022-10-19T10:48:25;21.70;99.90
12434;DHT22;6281;49.038;8.372;2022-10-19T10:50:53;21.20;99.90
12434;DHT22;6281;49.038;8.372;2022-10-19T10:53:39;20.50;99.90
12434;DHT22;6281;49.038;8.372;2022-10-19T10:56:21;19.40;99.90
12434;DHT22;6281;49.038;8.372;2022-10-19T10:58:52;19.20;99.90
12434;DHT22;6281;49.038;8.372;2022-10-19T11:01:22;19.10;99.90
12434;DHT22;6281;49.038;8.372;2022-10-19T11:03:53;19.20;99.90
12434;DHT22;6281;49.038;8.372;2022-10-19T11:06:23;20.40;99.90
12434;DHT22;6281;49.038;8.372;2022-10-19T11:09:01;20.30;99.90
12434;DHT22;6281;49.038;8.372;2022-10-19T11:11:34;19.80;99.90
12434;DHT22;6281;49.038;8.372;2022-10-19T11:14:21;20.40;99.90
12434;DHT22;6281;49.038;8.372;2022-10-19T11:16:51;19.90;99.90
12434;DHT22;6281;49.038;8.372;2022-10-19T11:19:21;19.50;99.90
12434;DHT22;6281;49.038;8.372;2022-10-19T11:21:56;19.60;99.90
12434;DHT22;6281;49.038;8.372;2022-10-19T11:24:41;19.00;99.90
12434;DHT22;6281;49.038;8.372;2022-10-19T11:27:21;19.10;99.90
12434;DHT22;6281;49.038;8.372;2022-10-19T11:30:06;19.70;99.90
12434;DHT22;6281;49.038;8.372;2022-10-19T11:32:40;19.00;99.90
12434;DHT22;6281;49.038;8.372;2022-10-19T11:35:27;19.90;99.90
12434;DHT22;6281;49.038;8.372;2022-10-19T11:38:05;19.40;99.90
12434;DHT22;6281;49.038;8.372;2022-10-19T11:40:37;19.20;99.90
12434;DHT22;6281;49.038;8.372;2022-10-19T11:43:11;19.30;99.90
12434;DHT22;6281;49.038;8.372;2022-10-19T11:45:47;19.00;99.90
12434;DHT22;6281;49.038;8.372;2022-10-19T11:48:34;18.40;99.90
12434;DHT22;6281;49.038;8.372;2022-10-19T11:51:10;18.80;99.90
12434;DHT22;6281;49.038;8.372;2022-10-19T11:53:47;18.50;99.90
12434;DHT22;6281;49.038;8.372;2022-10-19T11:56:24;18.80;99.90
12434;DHT22;6281;49.038;8.372;2022-10-19T11:58:58;19.00;99.90
12434;DHT22;6281;49.038;8.372;2022-10-19T12:01:41;18.80;99.90
12434;DHT22;6281;49.038;8.372;2022-10-19T12:04:52;18.30;99.90
12434;DHT22;6281;49.038;8.372;2022-10-19T12:07:43;18.50;99.90
12434;DHT22;6281;49.038;8.372;2022-10-19T12:10:19;18.30;99.90
12434;DHT22;6281;49.038;8.372;2022-10-19T12:12:54;18.30;99.90
12434;DHT22;6281;49.038;8.372;2022-10-19T12:15:28;18.30;99.90
12434;DHT22;6281;49.038;8.372;2022-10-19T12:18:01;18.50;99.90
12434;DHT22;6281;49.038;8.372;2022-10-19T12:20:33;18.50;99.90
12434;DHT22;6281;49.038;8.372;2022-10-19T12:23:13;18.60;99.90
12434;DHT22;6281;49.038;8.372;2022-10-19T12:25:42;18.50;99.90
12434;DHT22;6281;49.038;8.372;2022-10-19T12:28:18;18.60;99.90
12434;DHT22;6281;49.038;8.372;2022-10-19T12:30:46;18.60;99.90
12434;DHT22;6281;49.038;8.372;2022-10-19T12:33:17;18.60;99.90
12434;DHT22;6281;49.038;8.372;2022-10-19T12:35:54;18.40;99.90
12434;DHT22;6281;49.038;8.372;2022-10-19T12:38:32;18.30;99.90
12434;DHT22;6281;49.038;8.372;2022-10-19T12:41:05;18.20;99.90
12434;DHT22;6281;49.038;8.372;2022-10-19T12:43:40;18.30;99.90
12434;DHT22;6281;49.038;8.372;2022-10-19T12:46:15;18.30;99.90
12434;DHT22;6281;49.038;8.372;2022-10-19T12:51:52;18.30;99.90
12434;DHT22;6281;49.038;8.372;2022-10-19T12:54:22;18.40;99.90
12434;DHT22;6281;49.038;8.372;2022-10-19T12:56:51;18.40;99.90
12434;DHT22;6281;49.038;8.372;2022-10-19T12:59:23;18.30;99.90
12434;DHT22;6281;49.038;8.372;2022-10-19T13:01:50;18.40;99.90
12434;DHT22;6281;49.038;8.372;2022-10-19T13:04:19;18.40;99.90
12434;DHT22;6281;49.038;8.372;2022-10-19T13:06:49;18.20;99.90
12434;DHT22;6281;49.038;8.372;2022-10-19T13:09:22;18.20;99.90
12434;DHT22;6281;49.038;8.372;2022-10-19T13:14:57;18.40;99.90
12434;DHT22;6281;49.038;8.372;2022-10-19T13:17:40;18.40;99.90
12434;DHT22;6281;49.038;8.372;2022-10-19T13:23:38;18.70;99.90
12434;DHT22;6281;49.038;8.372;2022-10-19T13:26:31;19.70;99.90
12434;DHT22;6281;49.038;8.372;2022-10-19T13:28:59;20.50;99.90
12434;DHT22;6281;49.038;8.372;2022-10-19T13:31:28;20.50;99.90
12434;DHT22;6281;49.038;8.372;2022-10-19T13:33:56;20.70;99.90
12434;DHT22;6281;49.038;8.372;2022-10-19T13:36:24;20.80;99.90
12434;DHT22;6281;49.038;8.372;2022-10-19T13:39:11;20.40;99.90
12434;DHT22;6281;49.038;8.372;2022-10-19T13:41:49;20.30;99.90
12434;DHT22;6281;49.038;8.372;2022-10-19T13:44:25;20.00;99.90
12434;DHT22;6281;49.038;8.372;2022-10-19T13:53:18;21.70;99.90
12434;DHT22;6281;49.038;8.372;2022-10-19T13:56:06;21.80;99.90
12434;DHT22;6281;49.038;8.372;2022-10-19T14:05:27;20.40;99.90
12434;DHT22;6281;49.038;8.372;2022-10-19T14:08:15;20.50;99.90
12434;DHT22;6281;49.038;8.372;2022-10-19T14:10:48;20.50;99.90
12434;DHT22;6281;49.038;8.372;2022-10-19T14:13:16;20.70;99.90
12434;DHT22;6281;49.038;8.372;2022-10-19T14:15:50;20.40;99.90
12434;DHT22;6281;49.038;8.372;2022-10-19T14:18:25;20.20;99.90
12434;DHT22;6281;49.038;8.372;2022-10-19T14:20:56;20.10;99.90
12434;DHT22;6281;49.038;8.372;2022-10-19T14:23:25;20.00;99.90
12434;DHT22;6281;49.038;8.372;2022-10-19T14:25:54;19.80;99.90
12434;DHT22;6281;49.038;8.372;2022-10-19T14:28:22;19.60;99.90
12434;DHT22;6281;49.038;8.372;2022-10-19T14:30:57;19.40;99.90
12434;DHT22;6281;49.038;8.372;2022-10-19T14:33:27;19.30;99.90
12434;DHT22;6281;49.038;8.372;2022-10-19T14:35:55;19.40;99.90
12434;DHT22;6281;49.038;8.372;2022-10-19T14:38:26;19.20;99.90
12434;DHT22;6281;49.038;8.372;2022-10-19T14:40:54;19.40;99.90
12434;DHT22;6281;49.038;8.372;2022-10-19T14:43:23;19.40;99.90
12434;DHT22;6281;49.038;8.372;2022-10-19T14:46:08;19.20;99.90
12434;DHT22;6281;49.038;8.372;2022-10-19T14:48:38;19.30;99.90
12434;DHT22;6281;49.038;8.372;2022-10-19T14:51:08;19.40;99.90
12434;DHT22;6281;49.038;8.372;2022-10-19T14:53:41;19.30;99.90
12434;DHT22;6281;49.038;8.372;2022-10-19T14:56:13;19.40;99.90
12434;DHT22;6281;49.038;8.372;2022-10-19T14:58:48;19.50;99.90
12434;DHT22;6281;49.038;8.372;2022-10-19T15:01:17;19.30;99.90
12434;DHT22;6281;49.038;8.372;2022-10-19T15:03:47;19.90;99.90
12434;DHT22;6281;49.038;8.372;2022-10-19T15:06:18;20.10;99.90
12434;DHT22;6281;49.038;8.372;2022-10-19T15:08:48;20.20;99.90
12434;DHT22;6281;49.038;8.372;2022-10-19T15:11:23;20.00;99.90
12434;DHT22;6281;49.038;8.372;2022-10-19T15:13:55;20.40;99.90
12434;DHT22;6281;49.038;8.372;2022-10-19T15:16:33;20.50;99.90
12434;DHT22;6281;49.038;8.372;2022-10-19T15:19:15;20.40;99.90
12434;DHT22;6281;49.038;8.372;2022-10-19T15:21:42;20.00;99.90
12434;DHT22;6281;49.038;8.372;2022-10-19T15:24:22;19.80;99.90
12434;DHT22;6281;49.038;8.372;2022-10-19T15:26:51;19.70;99.90
12434;DHT22;6281;49.038;8.372;2022-10-19T15:29:20;19.40;99.90
12434;DHT22;6281;49.038;8.372;2022-10-19T15:31:48;19.30;99.90
12434;DHT22;6281;49.038;8.372;2022-10-19T15:34:23;19.20;99.90
12434;DHT22;6281;49.038;8.372;2022-10-19T15:36:56;19.00;99.90
12434;DHT22;6281;49.038;8.372;2022-10-19T15:39:28;18.70;99.90
12434;DHT22;6281;49.038;8.372;2022-10-19T15:42:21;18.80;99.90
12434;DHT22;6281;49.038;8.372;2022-10-19T15:44:48;18.60;99.90
12434;DHT22;6281;49.038;8.372;2022-10-19T15:47:21;18.40;99.90
12434;DHT22;6281;49.038;8.372;2022-10-19T15:49:58;18.40;99.90
12434;DHT22;6281;49.038;8.372;2022-10-19T15:52:26;18.40;99.90
12434;DHT22;6281;49.038;8.372;2022-10-19T15:54:55;18.40;99.90
12434;DHT22;6281;49.038;8.372;2022-10-19T15:57:28;18.30;99.90
12434;DHT22;6281;49.038;8.372;2022-10-19T16:02:24;18.10;99.90
12434;DHT22;6281;49.038;8.372;2022-10-19T16:04:51;18.10;99.90
12434;DHT22;6281;49.038;8.372;2022-10-19T16:07:24;17.80;99.90
12434;DHT22;6281;49.038;8.372;2022-10-19T16:09:51;17.80;99.90
12434;DHT22;6281;49.038;8.372;2022-10-19T16:12:32;17.70;99.90
12434;DHT22;6281;49.038;8.372;2022-10-19T16:14:58;17.50;99.90
12434;DHT22;6281;49.038;8.372;2022-10-19T16:17:26;17.50;99.90
12434;DHT22;6281;49.038;8.372;2022-10-19T16:19:53;17.50;99.90
12434;DHT22;6281;49.038;8.372;2022-10-19T16:22:21;17.40;99.90
12434;DHT22;6281;49.038;8.372;2022-10-19T16:24:48;17.30;99.90
12434;DHT22;6281;49.038;8.372;2022-10-19T16:27:15;17.30;99.90
12434;DHT22;6281;49.038;8.372;2022-10-19T16:29:42;17.10;99.90
12434;DHT22;6281;49.038;8.372;2022-10-19T16:32:09;17.10;99.90
12434;DHT22;6281;49.038;8.372;2022-10-19T16:34:36;17.20;99.90
12434;DHT22;6281;49.038;8.372;2022-10-19T16:37:03;17.00;99.90